首页
METAR-TAF:

METAR-TAF

机场 :

威尔明顿, 北卡罗来纳州, 美国

纬度: 34-16-14N, 经度: 077-54-09W, 海拔: 10米

当前天气观测

该预报发布于58分钟前的08:53 UTC
风速8节,风向东北
温度 18°C
湿度 94%
气压 1019 hPa
能見度: 16.1公里
多云层高于1300英尺

METAR: KILM 260853Z AUTO 04008KT 10SM BKN013 18/17 A3010 RMK AO2 SLP193 T01780167 55007

时间: 05:51 (09:51 UTC)

预报

该预报发布于51分钟前的09:00 UTC
预报有效从26日的 09点(UTC)到 27日的 06点(UTC)
风速7节,风向东北
能見度: 10公里
多云层高于1500英尺
从 26日的 1300点(UTC)
风速7节,风向东北
能見度: 10公里
多云层高于1000英尺
从 26日的 1700点(UTC)
风速9节,风向
能見度: 10公里
多云层高于2000英尺

TAF: KILM 260900Z 2609/2706 05007KT P6SM BKN015 FM261300 05007KT P6SM BKN010 FM261700 08009KT P6SM BKN020

超过4000个机场的气象观测和天气预报(METAR&TAF报告)。

可查询的气象台以黄色和红色小点在地图上表示。

将鼠标移到小点上方,可查看气象台名称。

然后点击查看天气观测和预报。

如需切换地图:点击带黑十字的绿色按钮放大地图;点击带横线的绿色按钮缩小地图;或者点击绿色箭头查看邻近地区的地图。


METAR-TAF: